createdAt,value
2022-10-15T00:00:43.986Z,44.08
2022-10-15T00:05:41.408Z,41.35
2022-10-15T00:10:35.679Z,51.10
2022-10-15T00:15:30.339Z,47.20
2022-10-15T00:20:24.815Z,47.47
2022-10-15T00:25:19.067Z,46.70
2022-10-15T00:30:14.421Z,44.92
2022-10-15T00:35:11.032Z,44.35
2022-10-15T00:40:06.516Z,48.55
2022-10-15T00:45:00.324Z,45.38
2022-10-15T00:50:15.178Z,43.85
2022-10-15T00:55:15.007Z,46.40
2022-10-15T01:00:11.647Z,48.35
2022-10-15T01:05:07.448Z,42.30
2022-10-15T01:10:01.261Z,41.58
2022-10-15T01:15:19.995Z,45.95
2022-10-15T01:20:47.874Z,43.20
2022-10-15T01:25:59.916Z,49.40
2022-10-15T01:31:09.379Z,53.65
2022-10-15T01:36:32.087Z,50.45
2022-10-15T01:41:28.694Z,51.37
2022-10-15T01:46:27.769Z,48.63
2022-10-15T01:51:45.130Z,58.38
2022-10-15T01:56:41.558Z,52.88
2022-10-15T02:01:34.910Z,48.53
2022-10-15T02:06:38.297Z,40.53
2022-10-15T02:11:39.572Z,47.15
2022-10-15T02:16:46.150Z,43.47
2022-10-15T02:22:16.723Z,44.15
2022-10-15T02:27:13.566Z,49.28
2022-10-15T02:32:07.636Z,49.40
2022-10-15T02:37:03.289Z,46.45
2022-10-15T02:41:56.928Z,52.78
2022-10-15T02:46:51.126Z,50.22
2022-10-15T02:51:46.644Z,51.08
2022-10-15T02:56:42.670Z,49.95
2022-10-15T03:01:36.886Z,54.13
2022-10-15T03:06:31.663Z,48.25
2022-10-15T03:11:29.433Z,45.33
2022-10-15T03:16:24.021Z,45.03
2022-10-15T03:26:10.348Z,48.42
2022-10-15T03:31:05.367Z,47.28
2022-10-15T03:35:59.129Z,43.63
2022-10-15T03:40:53.169Z,45.53
2022-10-15T03:46:05.890Z,47.45
2022-10-15T03:51:04.437Z,41.88
2022-10-15T03:56:03.352Z,44.08
2022-10-15T04:00:56.566Z,45.45
2022-10-15T04:05:54.732Z,43.15
2022-10-15T04:10:53.690Z,41.47
2022-10-15T04:15:47.741Z,43.25
2022-10-15T04:20:43.001Z,49.00
2022-10-15T04:25:42.776Z,44.88
2022-10-15T04:30:37.973Z,52.45
2022-10-15T04:35:35.903Z,46.33
2022-10-15T04:40:41.622Z,45.63
2022-10-15T04:45:35.710Z,43.88
2022-10-15T04:50:29.496Z,43.97
2022-10-15T04:55:45.156Z,43.10
2022-10-15T05:00:37.931Z,41.20
2022-10-15T05:05:35.766Z,46.17
2022-10-15T05:10:31.489Z,43.65
2022-10-15T05:15:29.525Z,44.75
2022-10-15T05:20:22.960Z,43.47
2022-10-15T05:25:17.525Z,50.03
2022-10-15T05:35:13.140Z,48.25
2022-10-15T05:40:21.919Z,39.85
2022-10-15T05:45:28.089Z,44.40
2022-10-15T05:50:24.629Z,46.30
2022-10-15T05:55:21.817Z,46.95
2022-10-15T06:00:17.560Z,46.10
2022-10-15T06:05:19.198Z,40.73
2022-10-15T06:10:13.252Z,36.85
2022-10-15T06:15:08.949Z,43.83
2022-10-15T06:20:03.773Z,37.47
2022-10-15T06:24:58.137Z,38.75
2022-10-15T06:29:52.910Z,41.67
2022-10-15T06:34:46.810Z,36.90
2022-10-15T06:39:44.795Z,40.22
2022-10-15T06:44:38.139Z,41.65
2022-10-15T06:49:31.493Z,37.15
2022-10-15T06:54:26.031Z,42.10
2022-10-15T06:59:20.725Z,42.58
2022-10-15T07:04:15.361Z,43.45
2022-10-15T07:09:09.592Z,37.75
2022-10-15T07:14:03.444Z,37.97
2022-10-15T07:18:57.123Z,37.70
2022-10-15T07:23:50.813Z,33.60
2022-10-15T07:28:46.003Z,34.95
2022-10-15T07:33:39.842Z,37.22
2022-10-15T07:38:34.314Z,38.25
2022-10-15T07:43:28.993Z,40.70
2022-10-15T07:48:23.766Z,41.42
2022-10-15T07:53:18.194Z,44.05
2022-10-15T07:58:18.336Z,47.85
2022-10-15T08:08:05.531Z,42.63
2022-10-15T08:12:59.477Z,35.35
2022-10-15T08:17:53.774Z,30.90
2022-10-15T08:22:48.065Z,32.38
2022-10-15T08:27:42.076Z,44.20
2022-10-15T08:32:36.111Z,57.60
2022-10-15T08:37:30.270Z,41.72
2022-10-15T08:42:41.781Z,45.60
2022-10-15T08:47:40.949Z,51.95
2022-10-15T08:52:40.224Z,56.30
2022-10-15T08:57:39.288Z,46.03
2022-10-15T09:02:40.163Z,44.75
2022-10-15T09:07:54.489Z,48.25
2022-10-15T09:13:26.467Z,57.95
2022-10-15T09:18:24.952Z,57.65
2022-10-15T09:23:21.919Z,51.05
2022-10-15T09:28:16.123Z,53.75
2022-10-15T09:33:27.565Z,50.92
2022-10-15T09:38:29.174Z,48.28
2022-10-15T09:43:34.378Z,45.13
2022-10-15T09:48:29.048Z,50.05
2022-10-15T09:53:28.402Z,55.20
2022-10-15T09:58:25.753Z,55.47
2022-10-15T10:03:20.020Z,52.92
2022-10-15T10:08:20.533Z,46.22
2022-10-15T10:13:26.523Z,48.88
2022-10-15T10:18:25.501Z,48.63
2022-10-15T10:23:24.625Z,54.45
2022-10-15T10:28:24.081Z,48.78
2022-10-15T10:33:33.474Z,53.30
2022-10-15T10:38:55.261Z,45.92
2022-10-15T10:43:56.245Z,46.15
2022-10-15T10:48:50.541Z,44.35
2022-10-15T10:53:59.175Z,46.85
2022-10-15T10:58:58.137Z,47.95
2022-10-15T11:03:52.093Z,54.90
2022-10-15T11:09:15.574Z,42.13
2022-10-15T11:14:27.653Z,44.28
2022-10-15T11:20:05.647Z,37.25
2022-10-15T11:25:20.218Z,41.83
2022-10-15T11:30:47.758Z,36.55
2022-10-15T11:36:09.679Z,40.97
2022-10-15T11:41:41.019Z,33.27
2022-10-15T11:46:45.790Z,35.70
2022-10-15T11:52:17.657Z,30.88
2022-10-15T11:57:14.242Z,31.58
2022-10-15T12:02:11.849Z,34.17
2022-10-15T12:07:07.444Z,35.15
2022-10-15T12:12:09.090Z,33.30
2022-10-15T12:17:20.614Z,34.58
2022-10-15T12:22:13.144Z,36.30
2022-10-15T12:27:21.385Z,30.75
2022-10-15T12:32:29.401Z,34.83
2022-10-15T12:37:38.485Z,33.47
2022-10-15T12:42:35.634Z,30.15
2022-10-15T12:48:04.629Z,30.02
2022-10-15T12:53:00.129Z,33.00
2022-10-15T12:58:02.420Z,21.42
2022-10-15T13:02:59.997Z,22.35
2022-10-15T13:07:53.410Z,18.15
2022-10-15T13:12:53.642Z,17.48
2022-10-15T13:17:49.244Z,15.75
2022-10-15T13:22:47.083Z,14.95
2022-10-15T13:27:40.810Z,14.15
2022-10-15T13:32:59.872Z,13.70
2022-10-15T13:37:54.011Z,13.93
2022-10-15T13:43:02.950Z,17.52
2022-10-15T13:47:57.535Z,14.32
2022-10-15T13:52:59.416Z,17.60
2022-10-15T13:57:58.965Z,16.42
2022-10-15T14:03:27.523Z,18.27
2022-10-15T14:08:23.168Z,17.13
2022-10-15T14:13:15.918Z,13.23
2022-10-15T14:18:10.110Z,20.30
2022-10-15T14:23:03.360Z,20.98
2022-10-15T14:27:57.883Z,14.10
2022-10-15T14:32:53.069Z,15.90
2022-10-15T14:37:47.262Z,14.70
2022-10-15T14:42:42.869Z,14.13
2022-10-15T14:47:36.545Z,15.30
2022-10-15T14:57:29.626Z,14.63
2022-10-15T15:02:26.607Z,11.10
2022-10-15T15:07:21.882Z,14.18
2022-10-15T15:12:24.112Z,11.98
2022-10-15T15:17:25.189Z,12.98
2022-10-15T15:22:32.714Z,15.23
2022-10-15T15:27:29.269Z,14.00
2022-10-15T15:32:23.575Z,16.52
2022-10-15T15:37:19.765Z,14.18
2022-10-15T15:42:17.673Z,14.40
2022-10-15T15:47:11.602Z,13.43
2022-10-15T15:52:09.210Z,15.68
2022-10-15T15:57:03.836Z,14.95
2022-10-15T16:01:57.893Z,10.23
2022-10-15T16:06:52.191Z,10.45
2022-10-15T16:11:46.562Z,13.68
2022-10-15T16:16:41.311Z,11.50
2022-10-15T16:21:35.187Z,10.75
2022-10-15T16:26:28.496Z,14.38
2022-10-15T16:31:27.864Z,10.18
2022-10-15T16:36:28.456Z,13.23
2022-10-15T16:41:22.161Z,11.18
2022-10-15T16:46:17.913Z,13.90
2022-10-15T16:51:15.209Z,12.88
2022-10-15T16:56:16.038Z,15.43
2022-10-15T17:01:13.712Z,12.25
2022-10-15T17:06:10.849Z,13.93
2022-10-15T17:11:05.496Z,15.57
2022-10-15T17:16:24.926Z,16.02
2022-10-15T17:21:20.883Z,12.60
2022-10-15T17:26:17.111Z,21.25
2022-10-15T17:31:12.960Z,21.25
2022-10-15T17:36:17.948Z,29.38
2022-10-15T17:41:18.339Z,19.23
2022-10-15T17:46:17.964Z,23.23
2022-10-15T17:51:14.727Z,20.55
2022-10-15T17:56:20.473Z,22.63
2022-10-15T18:01:59.608Z,18.30
2022-10-15T18:06:55.038Z,20.35
2022-10-15T18:11:51.829Z,20.90
2022-10-15T18:16:46.329Z,18.98
2022-10-15T18:21:40.381Z,27.10
2022-10-15T18:26:33.950Z,24.15
2022-10-15T18:31:27.797Z,20.88
2022-10-15T18:36:33.484Z,17.48
2022-10-15T18:41:36.696Z,17.23
2022-10-15T18:46:33.970Z,18.25
2022-10-15T18:51:30.682Z,20.15
2022-10-15T18:56:26.484Z,21.15
2022-10-15T19:01:35.471Z,23.17
2022-10-15T19:06:33.363Z,21.25
2022-10-15T19:11:30.454Z,23.95
2022-10-15T19:16:27.864Z,23.02
2022-10-15T19:21:30.201Z,22.65
2022-10-15T19:26:26.156Z,21.27
2022-10-15T19:31:29.896Z,27.67
2022-10-15T19:36:24.883Z,24.88
2022-10-15T19:41:20.441Z,26.42
2022-10-15T19:46:14.386Z,28.63
2022-10-15T19:51:08.788Z,21.73
2022-10-15T19:56:08.544Z,24.73
2022-10-15T20:01:03.247Z,21.67
2022-10-15T20:05:58.755Z,20.30
2022-10-15T20:10:53.749Z,23.25
2022-10-15T20:15:51.195Z,20.98
2022-10-15T20:20:47.042Z,21.58
2022-10-15T20:25:41.465Z,23.00
2022-10-15T20:30:34.693Z,25.77
2022-10-15T20:35:28.285Z,24.20
2022-10-15T20:40:22.902Z,18.23
2022-10-15T20:45:19.413Z,19.70
2022-10-15T20:50:36.443Z,22.70
2022-10-15T20:55:37.336Z,20.60
2022-10-15T21:00:33.994Z,18.27
2022-10-15T21:05:29.805Z,19.02
2022-10-15T21:10:25.718Z,19.63
2022-10-15T21:15:25.603Z,19.80
2022-10-15T21:20:21.402Z,19.15
2022-10-15T21:25:18.542Z,15.45
2022-10-15T21:30:14.877Z,22.05
2022-10-15T21:35:09.533Z,20.48
2022-10-15T21:40:03.746Z,23.63
2022-10-15T21:44:59.158Z,22.10
2022-10-15T21:49:52.163Z,20.83
2022-10-15T21:54:45.683Z,20.70
2022-10-15T21:59:39.261Z,18.20
2022-10-15T22:04:36.538Z,18.75
2022-10-15T22:09:30.828Z,19.90
2022-10-15T22:14:23.984Z,18.85
2022-10-15T22:19:19.297Z,22.08
2022-10-15T22:24:16.197Z,21.17
2022-10-15T22:29:16.436Z,22.42
2022-10-15T22:34:09.943Z,23.50
2022-10-15T22:39:05.846Z,22.13
2022-10-15T22:44:00.359Z,19.73
2022-10-15T22:48:54.589Z,21.52
2022-10-15T22:53:48.742Z,22.80
2022-10-15T23:03:35.389Z,21.27
2022-10-15T23:08:29.566Z,21.50
2022-10-15T23:13:24.121Z,21.67
2022-10-15T23:18:18.301Z,20.95
2022-10-15T23:23:12.309Z,22.00
2022-10-15T23:28:06.651Z,19.33
2022-10-15T23:33:03.421Z,20.88
2022-10-15T23:37:58.047Z,24.45
2022-10-15T23:42:52.621Z,21.95
2022-10-15T23:47:46.908Z,27.17
2022-10-15T23:52:41.245Z,23.90
2022-10-15T23:57:37.179Z,24.00
